Latest Weather Observations for Strathalbyn

IDS60801

Issued at 2:35 pm CST Friday 25 April 2014 (issued every 30 minutes, with the page automatically refreshed every 10 minutes)

About weather observations | Map of weather stations | Latest weather observations for SA | Other Formats
Station Details ID: 024580 Name: STRATHALBYN RACECOURSE Lat: -35.28 Lon: 138.89 Height: 58.0 m
Data from the previous 72 hours. | See also: Recent months at Strathalbyn
Date/Time
CST
Temp
°C
App
Temp
°C
Dew
Point
Rel
Hum
%
Delta-T
°C
Wind Press
QNH
hPa
Press
MSL
hPa
Rain
since 9 am
mm
Dir
 
Spd
km/h
Gust
km/h
Spd
kts
Gust
kts
25/02:30pm 22.4 18.9 7.0 37 8.0 NNW 15 22 8 12 1011.7 - 0.0
25/02:00pm 22.4 18.9 7.4 38 7.8 NNW 15 24 8 13 1011.9 - 0.0
25/01:30pm 22.5 18.6 7.1 37 8.0 N 17 26 9 14 1012.2 - 0.0
25/01:00pm 22.2 18.0 5.6 34 8.3 N 17 24 9 13 1012.7 - 0.0
25/12:30pm 22.5 18.2 7.1 37 8.0 N 19 28 10 15 1013.3 - 0.0
25/12:00pm 21.8 17.6 7.6 40 7.4 N 19 26 10 14 1014.0 1013.9 0.0
25/11:30am 21.2 17.1 7.8 42 7.0 N 19 26 10 14 1014.4 - 0.0
25/11:00am 21.0 16.9 8.0 43 6.8 N 19 26 10 14 1014.9 - 0.0
25/10:30am 20.4 16.2 7.4 43 6.7 N 19 28 10 15 1015.6 - 0.0
25/10:00am 19.6 15.1 6.3 42 6.7 NNE 19 26 10 14 1016.1 - 0.0
25/09:30am 17.9 13.7 5.8 45 5.9 NNE 17 22 9 12 1016.7 - 0.0
25/09:00am 16.8 12.7 6.0 49 5.3 NNE 17 24 9 13 1017.0 1017.0 0.0
25/08:30am 15.6 11.9 6.1 53 4.6 NNE 15 17 8 9 1017.2 - 0.0
25/08:00am 12.6 10.3 5.5 62 3.3 N 7 9 4 5 1017.2 - 0.0
25/07:30am 9.5 6.8 5.5 76 1.8 N 9 11 5 6 1017.3 - 0.0
25/07:00am 4.7 2.0 2.6 86 0.9 N 6 7 3 4 1017.3 - 0.0
25/06:30am 5.4 2.8 3.4 87 0.8 N 6 7 3 4 1017.2 - 0.0
25/06:00am 5.4 2.6 3.3 86 0.9 N 7 11 4 6 1017.5 1017.5 0.0
25/05:30am 6.3 3.8 3.6 83 1.1 N 6 7 3 4 1017.5 - 0.0
25/05:00am 7.5 3.4 4.5 81 1.3 N 15 17 8 9 1017.6 - 0.0
25/04:30am 7.5 3.4 4.6 82 1.3 NNW 15 17 8 9 1017.7 - 0.0
25/04:00am 7.9 4.3 5.2 83 1.2 NNW 13 17 7 9 1017.8 - 0.0
25/03:30am 7.3 3.7 4.9 85 1.1 NNW 13 15 7 8 1017.9 - 0.0
25/03:00am 6.9 3.2 4.7 86 1.0 NNW 13 13 7 7 1018.2 1018.2 0.0
25/02:30am 7.1 3.5 4.9 86 1.0 NNW 13 15 7 8 1018.5 - 0.0
25/02:00am 7.7 3.7 5.0 83 1.2 NW 15 17 8 9 1018.7 - 0.0
25/01:30am 8.0 4.0 5.1 82 1.3 NW 15 17 8 9 1019.1 - 0.0
25/01:00am 7.9 4.3 5.0 82 1.3 NW 13 15 7 8 1019.3 - 0.0
25/12:30am 7.7 3.7 4.8 82 1.3 NW 15 17 8 9 1019.5 - 0.0
25/12:00am 8.3 4.3 5.1 80 1.4 NW 15 17 8 9 1019.7 1019.7 0.0
 
Date/Time
CST
Temp
°C
App
Temp
°C
Dew
Point
Rel
Hum
%
Delta-T
°C
Wind Press
QNH
hPa
Press
MSL
hPa
Rain
since 9 am
mm
Dir
 
Spd
km/h
Gust
km/h
Spd
kts
Gust
kts
24/11:30pm 8.3 4.3 5.1 80 1.4 NW 15 19 8 10 1019.9 - 0.0
24/11:00pm 7.9 3.9 4.8 81 1.4 NNW 15 17 8 9 1020.0 - 0.0
24/10:30pm 7.6 3.6 4.9 83 1.2 NNW 15 17 8 9 1020.3 - 0.0
24/10:00pm 7.7 4.1 4.8 82 1.3 NNW 13 15 7 8 1020.5 - 0.0
24/09:30pm 7.9 5.0 4.8 81 1.4 NNW 9 11 5 6 1020.5 - 0.0
24/09:00pm 7.9 5.0 4.7 80 1.4 S 9 11 5 6 1020.3 1020.3 0.0
24/08:30pm 8.1 5.8 4.7 79 1.5 S 6 7 3 4 1020.0 - 0.0
24/08:00pm 9.4 7.1 5.0 74 2.0 S 6 7 3 4 1019.8 - 0.0
24/07:30pm 10.5 8.1 5.3 70 2.4 S 7 9 4 5 1019.6 - 0.0
24/07:00pm 10.9 8.4 5.0 67 2.7 S 7 9 4 5 1019.5 - 0.0
24/06:30pm 11.3 8.4 4.7 64 3.0 S 9 11 5 6 1019.2 - 0.0
24/06:00pm 12.5 9.6 4.7 59 3.6 S 9 9 5 5 1019.1 1019.1 0.0
24/05:30pm 14.2 10.5 4.5 52 4.5 S 13 17 7 9 1018.8 - 0.0
24/05:00pm 15.4 10.6 4.5 48 5.1 S 19 22 10 12 1018.5 - 0.0
24/04:30pm 16.1 12.3 5.7 50 5.0 SSE 15 24 8 13 1018.5 - 0.0
24/04:00pm 16.4 11.8 5.7 49 5.2 SSE 19 24 10 13 1018.4 - 0.0
24/03:30pm 16.7 12.5 5.6 48 5.4 SE 17 28 9 15 1018.3 - 0.0
24/03:00pm 17.3 12.9 6.5 49 5.3 SE 19 26 10 14 1018.2 1018.2 0.0
24/02:30pm 17.4 12.4 6.6 49 5.4 SSE 22 30 12 16 1018.1 - 0.0
24/02:00pm 18.3 14.4 7.1 48 5.6 SE 17 24 9 13 1018.0 - 0.0
24/01:30pm 18.0 13.7 7.1 49 5.5 SSE 19 28 10 15 1018.1 - 0.0
24/01:00pm 17.8 14.2 6.7 48 5.5 S 15 24 8 13 1018.3 - 0.0
24/12:30pm 18.2 14.2 8.2 52 5.1 SSW 19 30 10 16 1018.6 - 0.0
24/12:00pm 17.7 14.1 8.3 54 4.8 S 17 24 9 13 1018.8 1018.8 0.0
24/11:30am 17.2 12.7 8.6 57 4.4 S 22 32 12 17 1018.9 - 0.0
24/11:00am 17.1 12.3 9.0 59 4.2 S 24 35 13 19 1018.9 - 0.0
24/10:30am 16.2 11.7 10.1 67 3.2 S 24 32 13 17 1018.9 - 0.0
24/10:00am 15.6 11.2 11.6 77 2.2 S 26 35 14 19 1018.8 - 0.0
24/09:30am 15.5 12.9 12.1 80 1.9 S 17 28 9 15 1018.8 - 0.0
24/09:00am 15.9 13.5 12.8 82 1.7 S 17 20 9 11 1018.6 1018.6 1.0
24/08:30am 14.6 12.7 13.0 90 0.9 S 15 20 8 11 1018.3 - 1.0
24/08:00am 14.7 12.7 12.7 88 1.1 WSW 15 20 8 11 1017.7 - 0.4
24/07:30am 14.7 12.5 12.2 85 1.4 SW 15 20 8 11 1017.1 - 0.0
24/07:00am 14.8 12.3 11.2 79 1.9 SW 15 24 8 13 1016.5 - 0.0
24/06:30am 14.9 12.8 11.1 78 2.0 SW 13 17 7 9 1016.0 - 0.0
24/06:00am 14.7 13.3 12.2 85 1.4 SW 11 17 6 9 1015.6 1015.6 0.0
24/05:30am 15.4 13.7 12.5 83 1.6 W 13 19 7 10 1015.1 - 0.0
24/05:00am 15.0 13.4 11.6 80 1.8 WSW 11 20 6 11 1014.9 - 0.0
24/04:30am 14.9 13.3 11.7 81 1.7 W 11 15 6 8 1014.5 - 0.0
24/04:00am 14.5 13.2 11.3 81 1.7 W 9 17 5 9 1014.3 - 0.0
24/03:30am 14.7 13.4 11.3 80 1.8 W 9 13 5 7 1014.1 - 0.0
24/03:00am 14.8 13.9 11.4 80 1.8 W 7 11 4 6 1014.3 1014.3 0.0
24/02:30am 14.9 12.5 11.5 80 1.8 WNW 15 24 8 13 1014.3 - 0.0
24/02:00am 15.0 13.9 12.1 83 1.6 W 9 13 5 7 1014.6 - 0.0
24/01:30am 15.3 14.3 12.2 82 1.7 WSW 9 20 5 11 1014.8 - 0.0
24/01:00am 14.5 13.8 9.9 74 2.4 W 4 7 2 4 1014.4 - 0.0
24/12:30am 13.5 13.3 9.0 74 2.3 CALM 0 0 0 0 1014.5 - 0.0
24/12:00am 12.9 12.5 8.2 73 2.3 CALM 0 0 0 0 1014.5 1014.5 0.0
 
Date/Time
CST
Temp
°C
App
Temp
°C
Dew
Point
Rel
Hum
%
Delta-T
°C
Wind Press
QNH
hPa
Press
MSL
hPa
Rain
since 9 am
mm
Dir
 
Spd
km/h
Gust
km/h
Spd
kts
Gust
kts
23/11:30pm 13.4 12.0 8.9 74 2.3 W 6 7 3 4 1014.7 - 0.0
23/11:00pm 14.1 13.4 8.5 69 2.8 W 2 6 1 3 1014.9 - 0.0
23/10:30pm 15.0 13.0 8.5 65 3.3 W 9 11 5 6 1014.9 - 0.0
23/10:00pm 14.6 11.0 6.9 60 3.8 NW 15 17 8 9 1014.8 - 0.0
23/09:30pm 14.4 10.6 5.7 56 4.1 NNW 15 17 8 9 1014.7 - 0.0
23/09:00pm 13.8 10.9 4.9 55 4.1 N 9 11 5 6 1014.6 1014.6 0.0
23/08:30pm 13.8 10.5 4.4 53 4.3 NNW 11 13 6 7 1014.7 - 0.0
23/08:00pm 14.1 10.7 3.8 50 4.7 NNW 11 13 6 7 1014.6 - 0.0
23/07:30pm 15.1 11.3 3.9 47 5.2 NNW 13 17 7 9 1014.7 - 0.0
23/07:00pm 14.7 9.7 3.8 48 5.0 NW 19 22 10 12 1014.6 - 0.0
23/06:30pm 14.1 10.5 3.0 47 5.0 NNW 11 15 6 8 1014.3 - 0.0
23/06:00pm 16.4 11.9 2.4 39 6.3 NW 15 17 8 9 1014.2 1014.1 0.0
23/05:30pm 17.8 13.5 1.3 33 7.4 NW 13 15 7 8 1014.1 - 0.0
23/05:00pm 18.9 14.0 1.9 32 7.7 NW 17 22 9 12 1013.9 - 0.0
23/04:30pm 19.6 14.7 2.0 31 8.1 NW 17 24 9 13 1013.8 - 0.0
23/04:00pm 19.8 14.6 2.2 31 8.1 NW 19 26 10 14 1013.7 - 0.0
23/03:30pm 20.7 16.2 4.3 34 7.9 NW 17 26 9 14 1013.9 - 0.0
23/03:00pm 20.7 16.4 5.1 36 7.7 W 17 24 9 13 1014.0 1013.9 0.0
23/02:30pm 20.5 16.2 5.3 37 7.5 W 17 24 9 13 1014.3 - 0.0
23/02:00pm 19.8 16.3 5.5 39 7.1 NW 13 20 7 11 1014.4 - 0.0
23/01:30pm 20.2 16.3 5.4 38 7.3 NW 15 20 8 11 1014.8 - 0.0
23/01:00pm 19.9 16.5 5.9 40 7.0 NW 13 20 7 11 1015.3 - 0.0
23/12:30pm 19.1 15.9 5.2 40 6.8 W 11 19 6 10 1015.9 - 0.0
23/12:00pm 18.8 16.1 7.3 47 5.8 W 11 17 6 9 1016.5 1016.5 0.0
23/11:30am 18.5 15.4 5.7 43 6.3 W 11 20 6 11 1017.0 - 0.0
23/11:00am 18.5 16.7 7.3 48 5.7 SW 6 9 3 5 1017.5 - 0.0
23/10:30am 17.5 16.1 7.3 51 5.1 NW 4 7 2 4 1017.8 - 0.0
23/10:00am 16.2 14.5 7.4 56 4.4 NW 6 11 3 6 1018.0 - 0.0
23/09:30am 14.8 13.3 9.0 68 3.0 NNW 7 9 4 5 1018.2 - 0.0
23/09:00am 14.0 12.1 9.2 73 2.4 NNW 9 13 5 7 1018.3 1018.3 0.0
23/08:30am 12.7 10.4 9.0 78 1.9 NNW 11 13 6 7 1018.3 - 0.0
23/08:00am 10.8 8.3 8.0 83 1.4 NNW 11 13 6 7 1017.9 - 0.0
23/07:30am 9.7 6.2 7.3 85 1.1 NNW 15 17 8 9 1017.6 - 0.0
23/07:00am 8.9 5.7 6.9 87 0.9 NNW 13 15 7 8 1017.5 - 0.0
23/06:30am 8.6 5.0 6.6 87 0.9 NNW 15 17 8 9 1017.2 - 0.0
23/06:00am 8.2 4.5 6.3 88 0.9 NNW 15 17 8 9 1017.2 1017.2 0.0
23/05:30am 8.2 4.5 6.3 88 0.9 NNW 15 17 8 9 1017.2 - 0.0
23/05:00am 7.8 4.0 5.9 88 0.9 NNW 15 17 8 9 1017.2 - 0.0
23/04:30am 7.9 3.8 6.0 88 0.9 NNW 17 19 9 10 1017.3 - 0.0
23/04:00am 8.2 4.1 6.3 88 0.9 NNW 17 19 9 10 1017.3 - 0.0
23/03:30am 8.4 4.3 6.4 87 0.9 NNW 17 19 9 10 1017.2 - 0.0
23/03:00am 8.7 5.0 6.5 86 1.0 NNW 15 17 8 9 1017.5 1017.5 0.0
23/02:30am 8.4 4.7 6.2 86 1.0 NNW 15 17 8 9 1017.6 - 0.0
23/02:00am 8.9 5.6 6.5 85 1.1 NW 13 13 7 7 1017.9 - 0.0
23/01:30am 9.4 5.5 7.0 85 1.1 NNW 17 17 9 9 1018.1 - 0.0
23/01:00am 9.1 5.1 6.5 84 1.2 NNW 17 19 9 10 1018.3 - 0.0
23/12:30am 9.3 6.8 6.7 84 1.2 NW 9 15 5 8 1018.4 - 0.0
23/12:00am 9.6 6.4 6.7 82 1.4 NW 13 15 7 8 1018.6 1018.6 0.0
 
Date/Time
CST
Temp
°C
App
Temp
°C
Dew
Point
Rel
Hum
%
Delta-T
°C
Wind Press
QNH
hPa
Press
MSL
hPa
Rain
since 9 am
mm
Dir
 
Spd
km/h
Gust
km/h
Spd
kts
Gust
kts
22/11:30pm 9.7 6.5 6.8 82 1.4 NNW 13 15 7 8 1018.9 - 0.0
22/11:00pm 10.0 7.6 6.9 81 1.5 NW 9 11 5 6 1019.0 - 0.0
22/10:30pm 10.4 8.4 6.9 79 1.7 NW 7 9 4 5 1019.0 - 0.0
22/10:00pm 10.5 8.1 7.0 79 1.7 NNW 9 11 5 6 1019.0 - 0.0
22/09:30pm 10.7 8.3 7.2 79 1.7 NW 9 11 5 6 1019.2 - 0.0
22/09:00pm 11.1 8.7 7.2 77 1.9 W 9 9 5 5 1019.3 1019.3 0.0
22/08:30pm 11.9 10.2 7.4 74 2.2 W 6 7 3 4 1019.0 - 0.0
22/08:00pm 12.5 10.7 7.8 73 2.3 W 7 9 4 5 1019.1 - 0.0
22/07:30pm 12.2 10.0 7.7 74 2.2 WSW 9 11 5 6 1019.0 - 0.0
22/07:00pm 12.4 10.4 7.1 70 2.6 WSW 7 9 4 5 1018.8 - 0.0
22/06:30pm 12.9 10.5 6.9 67 2.9 SW 9 11 5 6 1018.6 - 0.0
22/06:00pm 14.1 11.0 7.4 64 3.3 SSW 13 17 7 9 1018.3 1018.3 0.0
22/05:30pm 15.4 10.6 7.4 59 4.0 SSW 22 28 12 15 1018.0 - 0.0
22/05:00pm 15.9 11.1 7.4 57 4.2 SSW 22 32 12 17 1017.7 - 0.0
22/04:30pm 17.0 11.6 7.9 55 4.6 S 26 35 14 19 1017.3 - 0.0
22/04:00pm 17.2 12.3 8.4 56 4.5 S 24 30 13 16 1017.2 - 0.0
22/03:30pm 18.4 13.5 8.4 52 5.2 S 24 32 13 17 1017.0 - 0.0
22/03:00pm 18.8 13.5 8.5 51 5.3 S 26 43 14 23 1016.8 1016.8 0.0

Other Formats:

Comma delimited format used in spreadsheet applications
http://www.bom.gov.au/fwo/IDS60801/IDS60801.94814.axf

JavaScript Object Notation format (JSON) in row-major order
http://www.bom.gov.au/fwo/IDS60801/IDS60801.94814.json